Juzhno-Kuril'Sk, Russia
Current Conditions -  °F | °C
As of 10:00 PM on Monday 24 Nov 2014 (Local Time) from RJCK Reporting Station
Broken Clouds Broken Clouds  
Wind Chill: 30°   Ceiling: 7000
Heat Index: 34°   Visibility: 6mi
Dew Point: 27°   Wind: 5mph
Humidity: 75%   Direction: 310°NW
Pressure: 29.97"   Gusts: NA
Location:  44.02°N, 145.87°E
Report Text: RJCK 241100Z 31004KT 9999 FEW040 BKN070 01/M03 Q1015
Loading
Personal Weather Stations






























Interactive Weather Map New forecast layout! Learn more

10-Day Weather Forecast

Advertisements
Track Severe Weather on mobile